Epic Balta — 9VED8 — position and weather

sailwx.info

Track history (hours):
 
Tides and Currents Weather Stations Pressure Air Temp Water Temp Dewpoint Dewpoint Depression Visibility Wind Speed Wind Dir Waves Ship Positions

Epic Balta

Last reported at 2016-Aug-11 17:26 UTC. Time now 2016-Aug-31 21:46 UTC.
Position N 17°22' W 062°57'.
Warning: this ship's position is 20 days out of date.

Length 100 m; draft 4.4 m.

Type: Ship. MMSI: 565525000.

Date/timePositionNaut miles runAvg speedWind from/ knotsBaromVisibWave heightAir tempDewpointWater temp
2016-Aug-11 17:26N 17°22' W 062°57'  
2016-Aug-08 01:17N 17°46' W 063°04'1013.3
2016-Aug-08 00:33N 17°55' W 063°05'6 5.5
2016-Aug-07 23:30N 18°01' W 063°05'0 0.0
2016-Aug-07 22:30N 18°01' W 063°05'0 0.0
2016-Aug-07 21:33N 18°01' W 063°05'0 0.0
2016-Aug-07 20:33N 18°01' W 063°05'0 0.0
2016-Aug-07 19:31N 18°01' W 063°05'0 0.0
2016-Aug-07 18:25N 18°01' W 063°05'0 0.0
2016-Aug-07 17:29N 18°01' W 063°05'0 0.0
2016-Aug-07 16:31N 18°01' W 063°05'0 0.0
2016-Aug-07 15:29N 18°01' W 063°05'0 0.0
2016-Aug-07 14:29N 18°01' W 063°05'0 0.0
2016-Aug-07 13:32N 18°01' W 063°05'0 0.0
2016-Aug-07 12:30N 18°01' W 063°05'2 1.5
2016-Aug-07 11:27N 18°00' W 063°07'0 0.0
2016-Aug-07 10:27N 18°00' W 063°07'0 0.0
2016-Aug-07 09:30N 18°00' W 063°07'0 0.0
2016-Aug-07 08:15N 18°00' W 063°07'0 0.0
2016-Aug-07 07:33N 18°00' W 063°07'0 0.0
2016-Aug-07 06:33N 18°00' W 063°07'1 0.6
2016-Aug-07 04:30N 17°59' W 063°06'11 9.8
2016-Aug-07 03:26N 17°53' W 063°16'1212.6
2016-Aug-07 02:28N 17°51' W 063°28'  
Track history (hours):
 
Tides and Currents Weather Stations Pressure Air Temp Water Temp Dewpoint Dewpoint Depression Visibility Wind Speed Wind Dir Waves Ship Positions

Epic Balta

Last reported at 2016-Aug-11 17:26 UTC. Time now 2016-Aug-31 21:46 UTC.
Position N 17°22' W 062°57'.
Warning: this ship's position is 20 days out of date.

Length 100 m; draft 4.4 m.

Type: Ship. MMSI: 565525000.

Date/timePositionNaut miles runAvg speedWind from/ knotsBaromVisibWave heightAir tempDewpointWater temp
2016-Aug-11 17:26N 17°22' W 062°57'  
2016-Aug-08 01:17N 17°46' W 063°04'1013.3
2016-Aug-08 00:33N 17°55' W 063°05'6 5.5
2016-Aug-07 23:30N 18°01' W 063°05'0 0.0
2016-Aug-07 22:30N 18°01' W 063°05'0 0.0
2016-Aug-07 21:33N 18°01' W 063°05'0 0.0
2016-Aug-07 20:33N 18°01' W 063°05'0 0.0
2016-Aug-07 19:31N 18°01' W 063°05'0 0.0
2016-Aug-07 18:25N 18°01' W 063°05'0 0.0
2016-Aug-07 17:29N 18°01' W 063°05'0 0.0
2016-Aug-07 16:31N 18°01' W 063°05'0 0.0
2016-Aug-07 15:29N 18°01' W 063°05'0 0.0
2016-Aug-07 14:29N 18°01' W 063°05'0 0.0
2016-Aug-07 13:32N 18°01' W 063°05'0 0.0
2016-Aug-07 12:30N 18°01' W 063°05'2 1.5
2016-Aug-07 11:27N 18°00' W 063°07'0 0.0
2016-Aug-07 10:27N 18°00' W 063°07'0 0.0
2016-Aug-07 09:30N 18°00' W 063°07'0 0.0
2016-Aug-07 08:15N 18°00' W 063°07'0 0.0
2016-Aug-07 07:33N 18°00' W 063°07'0 0.0
2016-Aug-07 06:33N 18°00' W 063°07'1 0.6
2016-Aug-07 04:30N 17°59' W 063°06'11 9.8
2016-Aug-07 03:26N 17°53' W 063°16'1212.6
2016-Aug-07 02:28N 17°51' W 063°28'  

Dump ship's entire track history